createdAt,value
2022-12-16T00:00:15.945Z,15.95
2022-12-16T00:02:43.662Z,16.87
2022-12-16T00:05:11.137Z,16.40
2022-12-16T00:07:38.482Z,16.35
2022-12-16T00:10:07.314Z,15.63
2022-12-16T00:12:35.639Z,16.48
2022-12-16T00:15:02.990Z,15.13
2022-12-16T00:17:30.628Z,14.90
2022-12-16T00:19:57.965Z,15.70
2022-12-16T00:22:25.314Z,16.17
2022-12-16T00:24:53.027Z,16.05
2022-12-16T00:27:20.390Z,4.65
2022-12-16T00:29:47.743Z,15.57
2022-12-16T00:32:15.408Z,16.25
2022-12-16T00:34:42.767Z,14.63
2022-12-16T00:37:11.830Z,15.75
2022-12-16T00:39:39.451Z,16.20
2022-12-16T00:42:06.856Z,2.58
2022-12-16T00:44:34.269Z,15.63
2022-12-16T00:47:01.897Z,1.15
2022-12-16T00:49:29.400Z,13.48
2022-12-16T00:51:56.756Z,13.43
2022-12-16T00:54:24.381Z,1.25
2022-12-16T00:56:51.732Z,14.95
2022-12-16T00:59:19.425Z,15.48
2022-12-16T01:01:47.186Z,14.82
2022-12-16T01:04:14.699Z,15.15
2022-12-16T01:06:42.064Z,14.87
2022-12-16T01:09:09.749Z,4.97
2022-12-16T01:11:37.092Z,18.52
2022-12-16T01:14:04.911Z,14.75
2022-12-16T01:16:32.616Z,14.43
2022-12-16T01:19:00.088Z,12.32
2022-12-16T01:21:27.442Z,11.68
2022-12-16T01:23:55.145Z,12.50
2022-12-16T01:26:22.759Z,12.90
2022-12-16T01:28:50.100Z,13.15
2022-12-16T01:31:19.449Z,12.88
2022-12-16T01:33:47.106Z,12.73
2022-12-16T01:36:14.674Z,12.25
2022-12-16T01:38:44.329Z,12.75
2022-12-16T01:41:13.665Z,13.00
2022-12-16T01:43:42.368Z,12.73
2022-12-16T01:46:13.096Z,12.18
2022-12-16T01:48:47.889Z,11.48
2022-12-16T01:51:24.398Z,12.77
2022-12-16T01:53:56.142Z,11.75
2022-12-16T01:56:25.620Z,2.12
2022-12-16T01:58:53.171Z,12.68
2022-12-16T02:01:23.032Z,10.90
2022-12-16T02:03:52.845Z,1.48
2022-12-16T02:06:20.577Z,11.77
2022-12-16T02:08:52.569Z,12.57
2022-12-16T02:11:29.390Z,12.18
2022-12-16T02:14:28.718Z,13.82
2022-12-16T02:17:05.055Z,0.90
2022-12-16T02:19:57.205Z,14.02
2022-12-16T02:22:53.254Z,13.38
2022-12-16T02:25:26.157Z,13.57
2022-12-16T02:28:01.342Z,12.05
2022-12-16T02:33:14.740Z,13.50
2022-12-16T02:35:52.995Z,16.30
2022-12-16T02:39:04.375Z,1.35
2022-12-16T02:41:53.442Z,0.90
2022-12-16T02:44:46.694Z,13.60
2022-12-16T02:47:14.235Z,13.20
2022-12-16T02:49:50.364Z,13.35
2022-12-16T02:52:20.928Z,12.85
2022-12-16T02:54:51.387Z,2.40
2022-12-16T02:57:55.949Z,14.05
2022-12-16T03:00:24.567Z,14.05
2022-12-16T03:03:02.864Z,13.95
2022-12-16T03:05:50.883Z,1.83
2022-12-16T03:08:27.070Z,15.38
2022-12-16T03:10:58.147Z,14.43
2022-12-16T03:13:25.770Z,14.27
2022-12-16T03:15:54.020Z,14.07
2022-12-16T03:18:22.417Z,8.73
2022-12-16T03:21:00.236Z,14.02
2022-12-16T03:23:34.430Z,13.27
2022-12-16T03:26:21.913Z,7.87
2022-12-16T03:28:57.907Z,12.60
2022-12-16T03:31:41.938Z,1.77
2022-12-16T03:34:33.011Z,14.55
2022-12-16T03:37:04.214Z,1.55
2022-12-16T03:39:35.245Z,1.27
2022-12-16T03:42:03.750Z,11.65
2022-12-16T03:44:31.230Z,13.00
2022-12-16T03:46:58.886Z,12.93
2022-12-16T03:49:26.333Z,12.30
2022-12-16T03:51:54.970Z,12.05
2022-12-16T03:54:23.533Z,1.02
2022-12-16T03:56:50.852Z,11.93
2022-12-16T03:59:18.266Z,11.95
2022-12-16T04:01:45.971Z,11.38
2022-12-16T04:04:13.673Z,2.42
2022-12-16T04:06:41.006Z,12.48
2022-12-16T04:09:08.496Z,13.30
2022-12-16T04:11:54.722Z,14.57
2022-12-16T04:14:40.622Z,14.23
2022-12-16T04:17:28.882Z,15.73
2022-12-16T04:20:14.897Z,15.07
2022-12-16T04:23:02.107Z,16.20
2022-12-16T04:25:35.744Z,12.95
2022-12-16T04:28:03.390Z,13.32
2022-12-16T04:30:34.672Z,14.32
2022-12-16T04:33:27.358Z,13.27
2022-12-16T04:36:13.695Z,13.20
2022-12-16T04:38:59.753Z,2.62
2022-12-16T04:41:46.012Z,11.70
2022-12-16T04:44:32.452Z,12.35
2022-12-16T04:47:19.016Z,12.07
2022-12-16T04:50:04.886Z,13.18
2022-12-16T04:52:51.012Z,12.30
2022-12-16T04:55:36.849Z,1.33
2022-12-16T04:58:23.085Z,12.85
2022-12-16T05:01:09.873Z,13.77
2022-12-16T05:03:56.120Z,13.57
2022-12-16T05:06:42.013Z,14.13
2022-12-16T05:09:28.055Z,14.27
2022-12-16T05:12:14.049Z,14.20
2022-12-16T05:15:00.093Z,13.73
2022-12-16T05:17:46.249Z,2.05
2022-12-16T05:20:32.670Z,16.52
2022-12-16T05:23:18.682Z,14.93
2022-12-16T05:26:04.541Z,15.95
2022-12-16T05:28:50.496Z,15.77
2022-12-16T05:31:37.035Z,15.85
2022-12-16T05:34:22.813Z,15.52
2022-12-16T05:37:08.986Z,16.55
2022-12-16T05:39:55.052Z,15.82
2022-12-16T05:42:41.264Z,16.90
2022-12-16T05:45:27.403Z,18.12
2022-12-16T05:48:14.477Z,7.97
2022-12-16T05:51:00.306Z,22.98
2022-12-16T05:53:56.905Z,20.35
2022-12-16T05:56:42.670Z,22.25
2022-12-16T05:59:28.915Z,16.83
2022-12-16T06:02:14.996Z,18.00
2022-12-16T06:05:01.390Z,17.70
2022-12-16T06:07:47.464Z,17.12
2022-12-16T06:10:33.706Z,17.67
2022-12-16T06:13:19.502Z,17.70
2022-12-16T06:16:08.952Z,17.87
2022-12-16T06:18:55.502Z,18.67
2022-12-16T06:21:41.499Z,18.08
2022-12-16T06:24:27.547Z,21.10
2022-12-16T06:27:13.563Z,19.48
2022-12-16T06:29:59.333Z,23.62
2022-12-16T06:32:45.404Z,22.45
2022-12-16T06:35:31.351Z,20.62
2022-12-16T06:38:17.756Z,22.02
2022-12-16T06:41:03.462Z,20.27
2022-12-16T06:43:49.450Z,21.90
2022-12-16T06:46:35.420Z,19.67
2022-12-16T06:49:21.635Z,18.92
2022-12-16T06:52:07.804Z,19.95
2022-12-16T06:54:53.908Z,19.23
2022-12-16T06:57:39.881Z,20.90
2022-12-16T07:00:26.583Z,19.90
2022-12-16T07:03:12.639Z,19.30
2022-12-16T07:05:58.902Z,18.75
2022-12-16T07:08:45.011Z,18.80
2022-12-16T07:11:31.283Z,19.52
2022-12-16T07:14:17.258Z,22.77
2022-12-16T07:17:03.596Z,21.70
2022-12-16T07:19:49.519Z,20.65
2022-12-16T07:22:35.865Z,19.95
2022-12-16T07:25:21.966Z,21.33
2022-12-16T07:28:13.817Z,22.70
2022-12-16T07:31:02.279Z,21.27
2022-12-16T07:33:48.657Z,20.33
2022-12-16T07:36:34.702Z,20.52
2022-12-16T07:39:21.003Z,23.12
2022-12-16T07:42:06.986Z,24.55
2022-12-16T07:45:03.989Z,26.10
2022-12-16T07:47:50.527Z,24.20
2022-12-16T07:50:37.372Z,23.27
2022-12-16T07:53:25.624Z,21.75
2022-12-16T07:56:15.858Z,24.77
2022-12-16T07:59:01.791Z,25.60
2022-12-16T08:01:48.053Z,24.30
2022-12-16T08:04:34.266Z,23.70
2022-12-16T08:07:20.315Z,24.77
2022-12-16T08:10:06.562Z,23.60
2022-12-16T08:12:52.829Z,22.30
2022-12-16T08:15:38.830Z,24.27
2022-12-16T08:18:24.821Z,24.25
2022-12-16T08:21:11.061Z,24.30
2022-12-16T08:23:57.137Z,30.15
2022-12-16T08:26:43.134Z,28.75
2022-12-16T08:29:45.783Z,26.12
2022-12-16T08:32:33.936Z,24.58
2022-12-16T08:35:19.860Z,26.58
2022-12-16T08:38:12.294Z,24.52
2022-12-16T08:41:01.795Z,23.75
2022-12-16T08:43:52.635Z,26.27
2022-12-16T08:46:39.385Z,23.62
2022-12-16T08:49:25.797Z,23.40
2022-12-16T08:52:11.702Z,24.05
2022-12-16T08:54:58.035Z,22.70
2022-12-16T08:57:43.976Z,22.67
2022-12-16T09:00:30.885Z,24.17
2022-12-16T09:03:18.225Z,23.23
2022-12-16T09:06:04.515Z,23.00
2022-12-16T09:08:51.168Z,21.75
2022-12-16T09:11:37.446Z,22.37
2022-12-16T09:14:23.727Z,20.00
2022-12-16T09:17:09.845Z,19.58
2022-12-16T09:19:55.804Z,19.65
2022-12-16T09:22:41.750Z,19.02
2022-12-16T09:25:27.917Z,20.75
2022-12-16T09:28:13.883Z,18.00
2022-12-16T09:30:59.973Z,19.90
2022-12-16T09:33:46.354Z,20.83
2022-12-16T09:36:32.186Z,22.42
2022-12-16T09:39:18.623Z,21.58
2022-12-16T09:42:27.837Z,20.62
2022-12-16T09:45:36.096Z,21.60
2022-12-16T09:48:31.517Z,22.98
2022-12-16T09:56:55.179Z,21.80
2022-12-16T09:59:46.298Z,22.67
2022-12-16T10:02:34.616Z,21.20
2022-12-16T10:05:21.222Z,22.15
2022-12-16T10:08:17.160Z,21.87
2022-12-16T10:11:14.208Z,19.15
2022-12-16T10:14:07.832Z,18.92
2022-12-16T10:17:03.335Z,19.92
2022-12-16T10:19:52.502Z,19.42
2022-12-16T10:22:56.233Z,20.48
2022-12-16T10:25:52.620Z,19.92
2022-12-16T10:28:54.419Z,20.27
2022-12-16T10:31:41.235Z,20.17
2022-12-16T10:34:33.766Z,19.75
2022-12-16T10:37:21.246Z,18.23
2022-12-16T10:40:11.541Z,19.15
2022-12-16T10:43:22.207Z,18.75
2022-12-16T10:46:10.713Z,18.27
2022-12-16T10:48:57.307Z,18.83
2022-12-16T10:51:46.540Z,19.08
2022-12-16T10:54:46.919Z,20.08
2022-12-16T10:57:51.845Z,21.95
2022-12-16T11:00:39.861Z,21.55
2022-12-16T11:03:41.558Z,20.30
2022-12-16T11:06:28.474Z,20.95
2022-12-16T11:09:14.268Z,22.10
2022-12-16T11:12:00.507Z,19.80
2022-12-16T11:15:28.261Z,20.00
2022-12-16T11:18:24.848Z,20.80
2022-12-16T11:21:37.034Z,19.20
2022-12-16T11:24:38.215Z,20.35
2022-12-16T11:27:32.597Z,19.30
2022-12-16T11:30:32.314Z,19.25
2022-12-16T11:33:21.636Z,19.15
2022-12-16T11:36:12.713Z,18.80
2022-12-16T11:39:02.527Z,20.55
2022-12-16T11:41:52.663Z,19.08
2022-12-16T11:44:43.829Z,17.20
2022-12-16T11:47:54.605Z,16.87
2022-12-16T11:50:43.520Z,19.08
2022-12-16T11:53:56.609Z,17.90
2022-12-16T11:56:45.152Z,17.35
2022-12-16T11:59:51.178Z,17.37
2022-12-16T12:02:43.305Z,17.27
2022-12-16T12:05:32.168Z,16.25
2022-12-16T12:08:29.403Z,18.00
2022-12-16T12:11:37.700Z,18.48
2022-12-16T12:14:34.344Z,17.98
2022-12-16T12:17:37.925Z,18.58
2022-12-16T12:21:01.506Z,19.60
2022-12-16T12:24:16.848Z,19.27
2022-12-16T12:27:17.073Z,17.50
2022-12-16T12:30:26.601Z,17.25
2022-12-16T12:33:43.678Z,18.10
2022-12-16T12:36:38.243Z,16.52
2022-12-16T12:39:44.054Z,17.12
2022-12-16T12:42:41.151Z,16.20
2022-12-16T12:45:36.221Z,14.35
2022-12-16T12:48:47.664Z,12.30
2022-12-16T12:51:48.211Z,12.77
2022-12-16T12:54:55.488Z,14.43
2022-12-16T12:57:44.612Z,12.48
2022-12-16T13:00:41.761Z,11.77
2022-12-16T13:03:37.688Z,10.63
2022-12-16T13:06:25.211Z,12.37
2022-12-16T13:09:11.387Z,11.07
2022-12-16T13:12:18.831Z,10.70
2022-12-16T13:15:13.453Z,9.32
2022-12-16T13:18:18.294Z,10.02
2022-12-16T13:21:12.478Z,10.43
2022-12-16T13:24:02.893Z,11.45
2022-12-16T13:26:51.181Z,12.18
2022-12-16T13:29:48.396Z,11.43
2022-12-16T13:32:42.493Z,11.48
2022-12-16T13:35:28.760Z,10.63
2022-12-16T13:38:37.122Z,10.13
2022-12-16T13:41:25.619Z,11.25
2022-12-16T13:44:16.885Z,11.57
2022-12-16T13:47:11.729Z,11.30
2022-12-16T13:50:01.864Z,11.82
2022-12-16T13:52:58.280Z,11.98
2022-12-16T13:55:56.685Z,10.65
2022-12-16T13:58:57.462Z,11.15
2022-12-16T14:02:10.735Z,11.50
2022-12-16T14:05:01.964Z,13.45
2022-12-16T14:07:51.353Z,13.90
2022-12-16T14:10:49.398Z,14.00
2022-12-16T14:14:17.240Z,14.35
2022-12-16T14:17:10.278Z,12.35
2022-12-16T14:20:11.038Z,11.45
2022-12-16T14:23:47.144Z,11.50
2022-12-16T14:26:34.404Z,13.20
2022-12-16T14:29:22.259Z,13.20
2022-12-16T14:32:08.286Z,12.63
2022-12-16T14:34:55.552Z,12.73
2022-12-16T14:37:48.469Z,12.48
2022-12-16T14:40:48.078Z,12.85
2022-12-16T14:43:43.027Z,12.20
2022-12-16T14:46:49.948Z,19.20
2022-12-16T14:49:40.525Z,15.02
2022-12-16T14:52:37.389Z,15.38
2022-12-16T14:55:46.460Z,13.73
2022-12-16T14:58:35.341Z,14.18
2022-12-16T15:01:33.587Z,14.95
2022-12-16T15:04:21.618Z,16.42
2022-12-16T15:07:09.371Z,20.00
2022-12-16T15:10:02.467Z,16.37
2022-12-16T15:12:52.623Z,15.77
2022-12-16T15:15:56.300Z,15.93
2022-12-16T15:18:58.079Z,13.80
2022-12-16T15:21:44.389Z,11.77
2022-12-16T15:24:35.546Z,12.55
2022-12-16T15:27:43.470Z,12.13
2022-12-16T15:30:53.339Z,13.55
2022-12-16T15:33:47.936Z,15.07
2022-12-16T15:36:54.940Z,15.00
2022-12-16T15:39:52.847Z,13.57
2022-12-16T15:42:47.523Z,14.40
2022-12-16T15:45:48.569Z,16.65
2022-12-16T15:48:47.691Z,16.05
2022-12-16T15:51:50.267Z,17.37
2022-12-16T15:54:41.408Z,16.35
2022-12-16T15:57:48.734Z,15.20
2022-12-16T16:00:47.919Z,16.17
2022-12-16T16:03:47.030Z,17.27
2022-12-16T16:06:33.985Z,17.00
2022-12-16T16:09:20.756Z,14.30
2022-12-16T16:12:06.854Z,14.15
2022-12-16T16:14:53.233Z,12.82
2022-12-16T16:17:41.212Z,14.57
2022-12-16T16:20:33.298Z,14.65
2022-12-16T16:23:19.327Z,16.33
2022-12-16T16:26:07.037Z,14.55
2022-12-16T16:28:53.914Z,14.63
2022-12-16T16:31:40.250Z,13.25
2022-12-16T16:34:26.493Z,13.68
2022-12-16T16:37:14.838Z,12.27
2022-12-16T16:40:01.879Z,12.40
2022-12-16T16:42:48.769Z,11.63
2022-12-16T16:45:34.835Z,12.63
2022-12-16T16:48:32.379Z,12.73
2022-12-16T16:51:19.527Z,11.88
2022-12-16T16:54:05.997Z,11.48
2022-12-16T16:56:53.449Z,12.90
2022-12-16T16:59:43.230Z,14.93
2022-12-16T17:02:41.218Z,14.00
2022-12-16T17:05:29.417Z,12.80
2022-12-16T17:08:15.959Z,11.70
2022-12-16T17:11:02.290Z,12.88
2022-12-16T17:13:48.281Z,13.18
2022-12-16T17:16:34.611Z,13.90
2022-12-16T17:19:21.640Z,14.57
2022-12-16T17:22:07.906Z,15.82
2022-12-16T17:24:54.851Z,13.18
2022-12-16T17:27:43.081Z,12.20
2022-12-16T17:30:40.692Z,12.63
2022-12-16T17:33:30.272Z,14.93
2022-12-16T17:36:16.651Z,14.80
2022-12-16T17:39:03.091Z,15.60
2022-12-16T17:41:50.829Z,15.77
2022-12-16T17:44:37.319Z,15.25
2022-12-16T17:47:23.414Z,15.63
2022-12-16T17:50:09.493Z,18.05
2022-12-16T17:52:55.230Z,17.15
2022-12-16T17:55:41.727Z,19.08
2022-12-16T17:58:30.831Z,18.85
2022-12-16T18:01:22.618Z,18.77
2022-12-16T18:04:09.912Z,17.15
2022-12-16T18:07:03.592Z,16.98
2022-12-16T18:09:49.681Z,17.02
2022-12-16T18:12:36.192Z,16.33
2022-12-16T18:15:22.559Z,16.98
2022-12-16T18:18:08.880Z,17.48
2022-12-16T18:20:55.364Z,18.40
2022-12-16T18:23:41.676Z,16.30
2022-12-16T18:26:28.734Z,16.58
2022-12-16T18:29:14.864Z,14.77
2022-12-16T18:32:01.328Z,15.38
2022-12-16T18:34:46.989Z,17.08
2022-12-16T18:37:35.303Z,17.37
2022-12-16T18:40:21.651Z,16.50
2022-12-16T18:43:07.771Z,21.33
2022-12-16T18:45:54.653Z,21.58
2022-12-16T18:48:41.483Z,18.12
2022-12-16T18:51:27.582Z,19.27
2022-12-16T18:54:19.045Z,18.30
2022-12-16T18:57:05.564Z,20.10
2022-12-16T18:59:52.331Z,20.08
2022-12-16T19:02:38.969Z,20.70
2022-12-16T19:05:26.040Z,21.27
2022-12-16T19:08:14.571Z,21.25
2022-12-16T19:11:01.654Z,23.23
2022-12-16T19:13:47.914Z,24.02
2022-12-16T19:16:34.616Z,24.27
2022-12-16T19:19:20.918Z,25.10
2022-12-16T19:22:06.969Z,24.92
2022-12-16T19:24:56.183Z,25.77
2022-12-16T19:27:43.828Z,24.40
2022-12-16T19:30:30.478Z,26.27
2022-12-16T19:33:16.844Z,24.35
2022-12-16T19:36:02.958Z,23.65
2022-12-16T19:38:49.357Z,26.62
2022-12-16T19:41:36.528Z,25.73
2022-12-16T19:44:23.531Z,25.80
2022-12-16T19:47:09.579Z,27.23
2022-12-16T19:49:56.079Z,1.45
2022-12-16T19:52:42.919Z,2.08
2022-12-16T19:55:30.216Z,27.73
2022-12-16T19:58:33.782Z,27.20
2022-12-16T20:01:27.880Z,27.30
2022-12-16T20:04:17.741Z,26.40
2022-12-16T20:07:04.884Z,29.12
2022-12-16T20:09:51.771Z,27.87
2022-12-16T20:12:38.117Z,27.50
2022-12-16T20:15:24.972Z,29.58
2022-12-16T20:18:19.017Z,1.58
2022-12-16T20:21:05.354Z,28.08
2022-12-16T20:23:51.995Z,27.95
2022-12-16T20:26:41.572Z,29.25
2022-12-16T20:29:28.201Z,28.52
2022-12-16T20:32:14.516Z,29.83
2022-12-16T20:35:00.529Z,0.80
2022-12-16T20:37:46.913Z,3.35
2022-12-16T20:40:32.838Z,29.98
2022-12-16T20:43:19.137Z,30.48
2022-12-16T20:46:05.095Z,29.92
2022-12-16T20:48:52.015Z,31.02
2022-12-16T20:51:38.496Z,32.63
2022-12-16T20:54:44.816Z,29.73
2022-12-16T21:00:17.542Z,31.55
2022-12-16T21:03:11.019Z,31.35
2022-12-16T21:05:57.934Z,30.10
2022-12-16T21:08:43.809Z,29.20
2022-12-16T21:11:30.350Z,31.10
2022-12-16T21:14:17.392Z,29.77
2022-12-16T21:17:04.051Z,31.40
2022-12-16T21:19:50.719Z,31.62
2022-12-16T21:22:38.704Z,32.00
2022-12-16T21:25:25.981Z,33.25
2022-12-16T21:28:18.744Z,32.80
2022-12-16T21:31:04.872Z,33.90
2022-12-16T21:33:51.847Z,34.72
2022-12-16T21:36:37.984Z,33.28
2022-12-16T21:39:24.250Z,33.80
2022-12-16T21:42:10.353Z,33.72
2022-12-16T21:44:56.802Z,36.08
2022-12-16T21:47:43.428Z,38.92
2022-12-16T21:50:29.839Z,36.25
2022-12-16T21:53:15.893Z,34.25
2022-12-16T21:56:02.263Z,35.10
2022-12-16T21:58:48.286Z,35.75
2022-12-16T22:01:34.570Z,37.85
2022-12-16T22:04:40.818Z,37.33
2022-12-16T22:07:27.277Z,36.42
2022-12-16T22:10:13.385Z,38.95
2022-12-16T22:12:59.137Z,1.98
2022-12-16T22:15:45.570Z,38.20
2022-12-16T22:18:31.510Z,36.60
2022-12-16T22:21:22.805Z,37.13
2022-12-16T22:24:09.254Z,38.65
2022-12-16T22:26:55.493Z,39.55
2022-12-16T22:29:42.945Z,37.67
2022-12-16T22:32:29.196Z,38.67
2022-12-16T22:35:15.811Z,37.75
2022-12-16T22:38:02.027Z,38.92
2022-12-16T22:40:48.097Z,39.20
2022-12-16T22:43:34.721Z,38.63
2022-12-16T22:46:24.025Z,38.50
2022-12-16T22:49:10.209Z,39.28
2022-12-16T22:51:56.138Z,38.38
2022-12-16T22:54:42.842Z,39.33
2022-12-16T22:57:28.742Z,38.65
2022-12-16T23:00:15.103Z,41.17
2022-12-16T23:03:00.991Z,39.67
2022-12-16T23:05:47.400Z,38.22
2022-12-16T23:08:33.309Z,39.30
2022-12-16T23:11:19.393Z,18.52
2022-12-16T23:14:05.410Z,40.35
2022-12-16T23:16:51.696Z,39.50
2022-12-16T23:19:39.312Z,38.60
2022-12-16T23:22:25.673Z,2.85
2022-12-16T23:25:11.458Z,40.72
2022-12-16T23:27:57.537Z,39.83
2022-12-16T23:30:43.577Z,39.40
2022-12-16T23:33:29.700Z,40.78
2022-12-16T23:36:15.642Z,6.28
2022-12-16T23:39:02.008Z,43.80
2022-12-16T23:41:47.970Z,42.17
2022-12-16T23:44:34.329Z,11.95
2022-12-16T23:47:20.397Z,42.17
2022-12-16T23:50:06.466Z,42.67
2022-12-16T23:52:53.979Z,40.90
2022-12-16T23:55:42.484Z,42.10
2022-12-16T23:58:28.492Z,42.40
